createdAt,value
2023-05-10T00:01:49.131Z,7.37
2023-05-10T00:04:17.226Z,7.70
2023-05-10T00:06:45.588Z,7.30
2023-05-10T00:09:13.648Z,7.17
2023-05-10T00:11:43.198Z,7.07
2023-05-10T00:14:11.412Z,6.63
2023-05-10T00:16:39.563Z,7.07
2023-05-10T00:19:07.674Z,7.13
2023-05-10T00:21:35.923Z,6.80
2023-05-10T00:24:04.282Z,6.80
2023-05-10T00:26:32.496Z,7.40
2023-05-10T00:29:02.234Z,6.70
2023-05-10T00:31:30.412Z,7.30
2023-05-10T00:33:59.394Z,6.70
2023-05-10T00:36:28.702Z,6.33
2023-05-10T00:38:56.835Z,6.47
2023-05-10T00:41:25.242Z,6.47
2023-05-10T00:43:53.416Z,6.40
2023-05-10T00:46:23.479Z,6.20
2023-05-10T00:48:51.866Z,6.53
2023-05-10T00:51:20.226Z,6.30
2023-05-10T00:53:48.746Z,6.43
2023-05-10T00:56:17.560Z,6.80
2023-05-10T00:58:45.917Z,6.20
2023-05-10T01:01:14.455Z,6.50
2023-05-10T01:03:44.157Z,5.53
2023-05-10T01:06:12.684Z,5.80
2023-05-10T01:08:41.250Z,6.20
2023-05-10T01:11:09.549Z,5.97
2023-05-10T01:13:39.985Z,6.10
2023-05-10T01:16:09.131Z,6.80
2023-05-10T01:18:41.189Z,5.60
2023-05-10T01:21:21.574Z,5.60
2023-05-10T01:24:24.922Z,5.43
2023-05-10T01:27:21.931Z,5.90
2023-05-10T01:30:16.808Z,6.37
2023-05-10T01:32:53.558Z,5.93
2023-05-10T01:35:28.876Z,6.00
2023-05-10T01:38:08.877Z,5.03
2023-05-10T01:40:42.478Z,6.03
2023-05-10T01:43:19.690Z,5.70
2023-05-10T01:45:56.822Z,6.17
2023-05-10T01:48:29.205Z,6.07
2023-05-10T01:50:58.741Z,5.83
2023-05-10T01:53:29.402Z,5.90
2023-05-10T01:55:58.676Z,5.97
2023-05-10T01:58:34.754Z,5.97
2023-05-10T02:01:06.611Z,6.00
2023-05-10T02:03:38.889Z,5.73
2023-05-10T02:06:07.774Z,5.73
2023-05-10T02:08:38.592Z,6.00
2023-05-10T02:11:07.412Z,5.57
2023-05-10T02:13:38.364Z,5.73
2023-05-10T02:16:08.370Z,5.70
2023-05-10T02:18:38.675Z,5.27
2023-05-10T02:21:07.144Z,4.90
2023-05-10T02:23:36.596Z,5.20
2023-05-10T02:26:06.835Z,5.20
2023-05-10T02:28:35.662Z,5.03
2023-05-10T02:31:04.372Z,4.77
2023-05-10T02:33:34.188Z,5.33
2023-05-10T02:36:04.838Z,5.30
2023-05-10T02:38:35.345Z,5.40
2023-05-10T02:41:05.811Z,5.30
2023-05-10T02:43:35.498Z,5.60
2023-05-10T02:46:04.256Z,6.17
2023-05-10T02:48:32.589Z,5.73
2023-05-10T02:51:06.781Z,6.23
2023-05-10T02:53:38.373Z,5.57
2023-05-10T02:56:14.427Z,5.83
2023-05-10T02:58:42.820Z,6.10
2023-05-10T03:01:11.558Z,5.47
2023-05-10T03:03:40.324Z,5.40
2023-05-10T03:06:10.771Z,5.53
2023-05-10T03:08:39.086Z,5.00
2023-05-10T03:11:26.014Z,5.73
2023-05-10T03:14:09.941Z,5.57
2023-05-10T03:16:46.711Z,5.30
2023-05-10T03:19:24.557Z,5.20
2023-05-10T03:21:58.080Z,5.20
2023-05-10T03:24:29.427Z,4.97
2023-05-10T03:27:03.858Z,5.57
2023-05-10T03:29:33.605Z,5.70
2023-05-10T03:32:02.176Z,5.27
2023-05-10T03:34:33.362Z,5.20
2023-05-10T03:37:03.058Z,5.37
2023-05-10T03:39:33.370Z,4.80
2023-05-10T03:42:03.399Z,5.10
2023-05-10T03:44:34.194Z,5.30
2023-05-10T03:47:02.502Z,5.50
2023-05-10T03:49:30.998Z,5.67
2023-05-10T03:51:59.216Z,5.50
2023-05-10T03:54:28.755Z,5.50
2023-05-10T03:56:57.017Z,4.90
2023-05-10T03:59:25.625Z,5.10
2023-05-10T04:01:54.348Z,5.00
2023-05-10T04:04:22.985Z,4.87
2023-05-10T04:06:52.111Z,5.10
2023-05-10T04:09:21.284Z,5.73
2023-05-10T04:11:50.829Z,5.13
2023-05-10T04:14:18.899Z,5.83
2023-05-10T04:16:47.061Z,5.50
2023-05-10T04:19:15.341Z,5.93
2023-05-10T04:21:43.523Z,5.73
2023-05-10T04:24:13.062Z,5.20
2023-05-10T04:26:41.855Z,4.90
2023-05-10T04:29:11.323Z,5.00
2023-05-10T04:31:39.583Z,5.13
2023-05-10T04:34:07.793Z,4.83
2023-05-10T04:36:36.810Z,5.30
2023-05-10T04:39:05.608Z,5.37
2023-05-10T04:41:33.924Z,5.57
2023-05-10T04:44:02.024Z,5.90
2023-05-10T04:46:31.622Z,5.10
2023-05-10T04:48:59.820Z,5.30
2023-05-10T04:51:27.916Z,4.80
2023-05-10T04:54:05.285Z,5.00
2023-05-10T04:56:35.152Z,4.97
2023-05-10T04:59:03.698Z,5.23
2023-05-10T05:01:33.320Z,4.60
2023-05-10T05:04:01.580Z,5.23
2023-05-10T05:06:29.786Z,5.20
2023-05-10T05:08:57.863Z,5.03
2023-05-10T05:11:26.403Z,5.87
2023-05-10T05:13:54.599Z,4.90
2023-05-10T05:16:22.884Z,5.27
2023-05-10T05:18:52.400Z,5.10
2023-05-10T05:21:22.425Z,4.77
2023-05-10T05:23:50.628Z,5.40
2023-05-10T05:26:18.910Z,5.00
2023-05-10T05:28:47.024Z,4.80
2023-05-10T05:31:15.231Z,4.70
2023-05-10T05:33:43.470Z,4.40
2023-05-10T05:36:13.064Z,4.60
2023-05-10T05:38:41.239Z,4.43
2023-05-10T05:41:09.444Z,4.55
2023-05-10T05:43:38.460Z,4.28
2023-05-10T05:46:07.042Z,4.43
2023-05-10T05:48:35.324Z,4.45
2023-05-10T05:51:05.104Z,4.47
2023-05-10T05:53:36.326Z,4.60
2023-05-10T05:56:04.792Z,4.50
2023-05-10T05:58:32.972Z,4.18
2023-05-10T06:01:01.261Z,4.70
2023-05-10T06:03:29.575Z,4.40
2023-05-10T06:05:57.758Z,4.28
2023-05-10T06:08:26.803Z,5.45
2023-05-10T06:10:56.224Z,8.48
2023-05-10T06:13:24.476Z,6.28
2023-05-10T06:15:52.706Z,5.05
2023-05-10T06:18:20.864Z,4.82
2023-05-10T06:20:48.944Z,5.00
2023-05-10T06:23:17.292Z,4.85
2023-05-10T06:25:45.447Z,4.70
2023-05-10T06:28:14.965Z,4.50
2023-05-10T06:30:43.113Z,4.50
2023-05-10T06:33:11.483Z,4.05
2023-05-10T06:35:39.977Z,4.15
2023-05-10T06:38:08.186Z,3.65
2023-05-10T06:40:37.034Z,4.35
2023-05-10T06:43:05.225Z,3.70
2023-05-10T06:45:34.799Z,4.03
2023-05-10T06:48:03.065Z,3.38
2023-05-10T06:50:31.371Z,3.60
2023-05-10T06:52:59.865Z,3.40
2023-05-10T06:55:28.040Z,3.50
2023-05-10T06:57:56.760Z,3.28
2023-05-10T07:00:25.261Z,3.10
2023-05-10T07:02:54.838Z,3.42
2023-05-10T07:05:23.573Z,3.88
2023-05-10T07:07:53.035Z,3.15
2023-05-10T07:10:21.320Z,3.55
2023-05-10T07:12:49.692Z,4.07
2023-05-10T07:15:18.279Z,3.17
2023-05-10T07:17:46.909Z,3.00
2023-05-10T07:20:16.654Z,3.28
2023-05-10T07:22:44.964Z,3.10
2023-05-10T07:25:13.416Z,2.90
2023-05-10T07:27:41.611Z,2.80
2023-05-10T07:30:10.861Z,2.92
2023-05-10T07:32:40.562Z,2.70
2023-05-10T07:35:09.511Z,2.80
2023-05-10T07:37:39.112Z,2.80
2023-05-10T07:40:08.732Z,2.63
2023-05-10T07:42:37.010Z,2.35
2023-05-10T07:45:05.650Z,2.22
2023-05-10T07:47:33.875Z,2.97
2023-05-10T07:50:02.083Z,3.38
2023-05-10T07:52:30.538Z,2.40
2023-05-10T07:54:59.963Z,2.30
2023-05-10T07:57:28.085Z,2.75
2023-05-10T07:59:56.523Z,2.53
2023-05-10T08:02:24.749Z,2.40
2023-05-10T08:04:53.057Z,2.50
2023-05-10T08:07:21.332Z,2.50
2023-05-10T08:09:49.384Z,2.53
2023-05-10T08:12:19.019Z,2.40
2023-05-10T08:14:47.508Z,2.20
2023-05-10T08:17:15.711Z,2.60
2023-05-10T08:19:43.899Z,2.47
2023-05-10T08:22:12.131Z,2.90
2023-05-10T08:24:40.274Z,2.30
2023-05-10T08:27:08.447Z,2.53
2023-05-10T08:29:48.969Z,2.47
2023-05-10T08:32:18.547Z,2.40
2023-05-10T08:34:46.724Z,2.33
2023-05-10T08:37:14.994Z,2.67
2023-05-10T08:39:43.165Z,2.28
2023-05-10T08:42:11.864Z,2.10
2023-05-10T08:44:41.418Z,2.10
2023-05-10T08:47:11.292Z,2.15
2023-05-10T08:49:39.806Z,2.38
2023-05-10T08:52:09.256Z,2.10
2023-05-10T08:54:38.476Z,3.72
2023-05-10T08:57:06.984Z,2.40
2023-05-10T08:59:35.200Z,2.50
2023-05-10T09:02:06.834Z,2.50
2023-05-10T09:04:35.459Z,1.85
2023-05-10T09:07:03.641Z,2.28
2023-05-10T09:09:31.942Z,2.50
2023-05-10T09:12:00.279Z,2.38
2023-05-10T09:14:28.801Z,2.30
2023-05-10T09:16:57.312Z,2.65
2023-05-10T09:19:27.099Z,2.30
2023-05-10T09:21:55.153Z,2.60
2023-05-10T09:24:28.108Z,2.60
2023-05-10T09:26:58.685Z,2.67
2023-05-10T09:29:26.841Z,2.80
2023-05-10T09:31:56.399Z,2.75
2023-05-10T09:34:33.059Z,2.30
2023-05-10T09:37:03.882Z,2.22
2023-05-10T09:39:35.605Z,2.38
2023-05-10T09:42:05.923Z,2.10
2023-05-10T09:44:34.683Z,2.25
2023-05-10T09:47:03.024Z,2.30
2023-05-10T09:49:32.919Z,2.47
2023-05-10T09:52:05.782Z,2.50
2023-05-10T09:54:35.221Z,2.65
2023-05-10T09:57:03.530Z,2.13
2023-05-10T09:59:32.153Z,2.10
2023-05-10T10:02:02.306Z,2.20
2023-05-10T10:04:32.676Z,2.25
2023-05-10T10:07:02.727Z,2.38
2023-05-10T10:09:31.369Z,2.40
2023-05-10T10:11:59.797Z,2.28
2023-05-10T10:14:28.151Z,5.00
2023-05-10T10:17:07.425Z,2.75
2023-05-10T10:19:38.808Z,2.13
2023-05-10T10:22:07.496Z,1.95
2023-05-10T10:24:36.113Z,2.20
2023-05-10T10:27:13.477Z,2.17
2023-05-10T10:29:50.495Z,2.10
2023-05-10T10:32:27.586Z,2.35
2023-05-10T10:34:58.292Z,2.20
2023-05-10T10:37:43.177Z,2.28
2023-05-10T10:40:27.379Z,2.40
2023-05-10T10:42:55.878Z,2.05
2023-05-10T10:45:25.386Z,2.38
2023-05-10T10:48:11.225Z,1.90
2023-05-10T10:50:47.990Z,2.20
2023-05-10T10:53:16.471Z,2.55
2023-05-10T10:55:48.901Z,2.20
2023-05-10T10:58:32.805Z,2.30
2023-05-10T11:01:14.844Z,2.20
2023-05-10T11:03:43.727Z,2.72
2023-05-10T11:06:13.425Z,2.30
2023-05-10T11:08:48.804Z,2.45
2023-05-10T11:11:17.149Z,2.30
2023-05-10T11:13:50.051Z,2.70
2023-05-10T11:16:20.892Z,2.50
2023-05-10T11:18:58.670Z,2.63
2023-05-10T11:21:28.718Z,2.55
2023-05-10T11:23:58.468Z,2.35
2023-05-10T11:26:27.432Z,2.78
2023-05-10T11:28:57.403Z,2.47
2023-05-10T11:31:27.916Z,2.80
2023-05-10T11:33:57.461Z,2.50
2023-05-10T11:36:28.482Z,2.35
2023-05-10T11:38:57.430Z,2.53
2023-05-10T11:41:26.197Z,2.30
2023-05-10T11:43:55.793Z,2.40
2023-05-10T11:46:25.678Z,2.70
2023-05-10T11:48:55.158Z,2.25
2023-05-10T11:51:24.373Z,2.33
2023-05-10T11:53:55.962Z,2.78
2023-05-10T11:56:24.513Z,2.47
2023-05-10T11:58:56.585Z,2.25
2023-05-10T12:01:25.410Z,2.65
2023-05-10T12:03:56.096Z,2.67
2023-05-10T12:06:24.750Z,2.35
2023-05-10T12:08:54.798Z,2.58
2023-05-10T12:11:27.350Z,4.40
2023-05-10T12:13:57.164Z,2.97
2023-05-10T12:16:27.491Z,2.45
2023-05-10T12:18:57.965Z,5.13
2023-05-10T12:21:26.913Z,2.45
2023-05-10T12:24:01.234Z,2.10
2023-05-10T12:26:30.901Z,2.30
2023-05-10T12:29:15.038Z,2.22
2023-05-10T12:31:57.142Z,2.33
2023-05-10T12:34:32.438Z,2.33
2023-05-10T12:37:01.246Z,2.35
2023-05-10T12:39:40.785Z,3.00
2023-05-10T12:42:09.456Z,3.03
2023-05-10T12:44:37.527Z,2.40
2023-05-10T12:47:06.153Z,2.45
2023-05-10T12:49:34.977Z,2.15
2023-05-10T12:52:03.320Z,2.28
2023-05-10T12:54:32.864Z,2.40
2023-05-10T12:57:01.054Z,2.10
2023-05-10T12:59:29.188Z,2.40
2023-05-10T13:01:57.624Z,2.10
2023-05-10T13:04:26.297Z,2.00
2023-05-10T13:06:56.537Z,2.50
2023-05-10T13:09:26.099Z,2.63
2023-05-10T13:11:56.455Z,2.10
2023-05-10T13:14:24.966Z,2.20
2023-05-10T13:16:53.295Z,2.30
2023-05-10T13:19:22.720Z,2.15
2023-05-10T13:21:51.200Z,2.13
2023-05-10T13:24:19.626Z,2.20
2023-05-10T13:26:48.031Z,2.35
2023-05-10T13:29:19.149Z,2.05
2023-05-10T13:31:48.516Z,1.95
2023-05-10T13:34:16.840Z,2.85
2023-05-10T13:36:46.204Z,2.30
2023-05-10T13:39:14.956Z,2.22
2023-05-10T13:41:43.351Z,2.30
2023-05-10T13:44:13.088Z,2.33
2023-05-10T13:46:43.428Z,2.42
2023-05-10T13:49:12.304Z,2.38
2023-05-10T13:51:40.686Z,1.90
2023-05-10T13:54:09.690Z,2.55
2023-05-10T13:56:38.812Z,2.00
2023-05-10T13:59:08.804Z,2.35
2023-05-10T14:01:37.570Z,2.10
2023-05-10T14:04:08.144Z,2.35
2023-05-10T14:06:36.573Z,2.00
2023-05-10T14:09:05.402Z,2.10
2023-05-10T14:11:34.225Z,2.28
2023-05-10T14:14:02.550Z,2.40
2023-05-10T14:16:30.958Z,1.92
2023-05-10T14:18:59.363Z,2.22
2023-05-10T14:21:30.416Z,2.25
2023-05-10T14:23:58.890Z,2.00
2023-05-10T14:26:27.384Z,2.40
2023-05-10T14:28:55.934Z,2.05
2023-05-10T14:31:25.905Z,2.30
2023-05-10T14:33:54.652Z,2.15
2023-05-10T14:36:23.585Z,2.50
2023-05-10T14:38:54.278Z,2.00
2023-05-10T14:41:22.881Z,1.92
2023-05-10T14:43:51.131Z,2.13
2023-05-10T14:46:20.332Z,2.08
2023-05-10T14:48:48.841Z,2.00
2023-05-10T14:51:17.269Z,1.88
2023-05-10T14:53:45.727Z,2.60
2023-05-10T14:56:15.889Z,2.22
2023-05-10T14:58:44.410Z,2.42
2023-05-10T15:01:14.041Z,2.30
2023-05-10T15:03:42.605Z,2.42
2023-05-10T15:06:11.762Z,2.15
2023-05-10T15:08:40.017Z,2.30
2023-05-10T15:11:08.309Z,2.45
2023-05-10T15:13:38.729Z,2.25
2023-05-10T15:16:07.856Z,2.42
2023-05-10T15:18:36.472Z,2.38
2023-05-10T15:21:05.611Z,2.50
2023-05-10T15:23:34.191Z,2.22
2023-05-10T15:26:03.866Z,2.30
2023-05-10T15:28:34.288Z,2.20
2023-05-10T15:31:04.508Z,2.20
2023-05-10T15:33:32.869Z,1.92
2023-05-10T15:36:01.895Z,2.20
2023-05-10T15:38:30.555Z,2.08
2023-05-10T15:40:59.569Z,2.13
2023-05-10T15:43:29.403Z,2.05
2023-05-10T15:45:58.120Z,2.30
2023-05-10T15:48:28.395Z,2.30
2023-05-10T15:50:57.719Z,2.17
2023-05-10T15:53:27.177Z,2.10
2023-05-10T15:55:56.292Z,2.10
2023-05-10T15:58:26.874Z,2.10
2023-05-10T16:00:57.833Z,2.72
2023-05-10T16:03:27.663Z,1.83
2023-05-10T16:05:56.043Z,1.90
2023-05-10T16:08:24.646Z,2.00
2023-05-10T16:10:53.658Z,2.15
2023-05-10T16:13:21.961Z,1.95
2023-05-10T16:15:50.452Z,2.00
2023-05-10T16:18:18.991Z,2.10
2023-05-10T16:20:48.951Z,2.00
2023-05-10T16:23:17.578Z,1.90
2023-05-10T16:25:48.370Z,2.40
2023-05-10T16:28:16.614Z,2.33
2023-05-10T16:30:44.958Z,2.03
2023-05-10T16:33:14.043Z,2.00
2023-05-10T16:35:43.103Z,1.80
2023-05-10T16:38:13.266Z,2.10
2023-05-10T16:40:41.891Z,2.90
2023-05-10T16:43:10.932Z,1.63
2023-05-10T16:45:40.010Z,2.00
2023-05-10T16:48:08.899Z,1.90
2023-05-10T16:50:37.468Z,2.10
2023-05-10T16:53:06.805Z,2.08
2023-05-10T16:55:37.466Z,1.80
2023-05-10T16:58:06.927Z,2.20
2023-05-10T17:00:36.441Z,1.75
2023-05-10T17:03:05.724Z,2.38
2023-05-10T17:05:34.630Z,2.33
2023-05-10T17:08:04.764Z,1.92
2023-05-10T17:10:33.289Z,1.52
2023-05-10T17:13:03.954Z,1.80
2023-05-10T17:15:33.029Z,2.20
2023-05-10T17:18:04.245Z,2.10
2023-05-10T17:20:34.781Z,1.95
2023-05-10T17:23:03.556Z,1.98
2023-05-10T17:25:32.436Z,2.00
2023-05-10T17:28:05.644Z,1.92
2023-05-10T17:30:36.818Z,2.17
2023-05-10T17:33:06.217Z,1.98
2023-05-10T17:35:34.929Z,2.30
2023-05-10T17:38:03.462Z,2.53
2023-05-10T17:40:32.205Z,2.30
2023-05-10T17:43:00.797Z,2.28
2023-05-10T17:45:31.916Z,2.40
2023-05-10T17:48:01.333Z,2.40
2023-05-10T17:50:29.673Z,2.80
2023-05-10T17:52:58.192Z,2.78
2023-05-10T17:55:27.227Z,2.72
2023-05-10T17:57:58.703Z,2.50
2023-05-10T18:00:30.085Z,2.20
2023-05-10T18:03:00.352Z,1.92
2023-05-10T18:05:28.731Z,2.45
2023-05-10T18:07:57.472Z,2.35
2023-05-10T18:10:28.767Z,2.42
2023-05-10T18:13:03.129Z,2.38
2023-05-10T18:15:35.149Z,2.30
2023-05-10T18:18:07.175Z,2.40
2023-05-10T18:20:35.735Z,2.65
2023-05-10T18:23:04.784Z,2.30
2023-05-10T18:25:33.967Z,2.80
2023-05-10T18:28:02.520Z,3.08
2023-05-10T18:30:31.037Z,2.65
2023-05-10T18:32:59.447Z,2.70
2023-05-10T18:35:33.014Z,2.53
2023-05-10T18:38:02.814Z,2.50
2023-05-10T18:40:31.316Z,2.88
2023-05-10T18:43:01.893Z,2.70
2023-05-10T18:45:30.293Z,2.67
2023-05-10T18:47:58.717Z,3.00
2023-05-10T18:50:28.436Z,3.15
2023-05-10T18:53:01.652Z,3.58
2023-05-10T18:55:31.051Z,3.38
2023-05-10T18:58:00.982Z,2.80
2023-05-10T19:00:29.793Z,2.90
2023-05-10T19:02:58.221Z,3.40
2023-05-10T19:05:30.452Z,3.17
2023-05-10T19:07:59.139Z,3.63
2023-05-10T19:10:27.808Z,3.25
2023-05-10T19:12:58.193Z,3.80
2023-05-10T19:15:27.885Z,3.60
2023-05-10T19:17:58.684Z,3.50
2023-05-10T19:20:30.022Z,3.65
2023-05-10T19:23:09.618Z,3.88
2023-05-10T19:25:42.340Z,4.47
2023-05-10T19:28:12.369Z,3.90
2023-05-10T19:30:41.034Z,4.28
2023-05-10T19:33:10.621Z,3.67
2023-05-10T19:35:40.805Z,4.03
2023-05-10T19:38:09.107Z,4.10
2023-05-10T19:40:37.296Z,4.53
2023-05-10T19:43:05.478Z,4.65
2023-05-10T19:45:35.011Z,4.20
2023-05-10T19:48:03.363Z,3.80
2023-05-10T19:50:31.681Z,4.65
2023-05-10T19:53:01.749Z,4.40
2023-05-10T19:55:32.044Z,4.60
2023-05-10T19:58:01.617Z,4.60
2023-05-10T20:00:30.319Z,4.80
2023-05-10T20:02:59.012Z,4.00
2023-05-10T20:05:27.182Z,4.78
2023-05-10T20:07:55.664Z,4.78
2023-05-10T20:10:27.044Z,4.68
2023-05-10T20:12:55.554Z,4.57
2023-05-10T20:15:24.822Z,4.32
2023-05-10T20:17:54.023Z,5.10
2023-05-10T20:20:22.726Z,4.35
2023-05-10T20:22:51.467Z,4.70
2023-05-10T20:25:20.502Z,4.70
2023-05-10T20:27:51.795Z,4.90
2023-05-10T20:30:20.478Z,4.80
2023-05-10T20:32:49.003Z,4.65
2023-05-10T20:35:17.343Z,4.40
2023-05-10T20:37:45.659Z,4.45
2023-05-10T20:40:14.361Z,4.63
2023-05-10T20:42:42.681Z,4.68
2023-05-10T20:45:13.058Z,4.80
2023-05-10T20:47:41.394Z,4.97
2023-05-10T20:50:10.167Z,4.43
2023-05-10T20:52:38.550Z,4.70
2023-05-10T20:55:07.863Z,4.60
2023-05-10T20:57:36.656Z,5.32
2023-05-10T21:00:05.842Z,4.63
2023-05-10T21:02:35.861Z,4.68
2023-05-10T21:05:04.102Z,4.70
2023-05-10T21:07:32.983Z,4.50
2023-05-10T21:10:01.178Z,4.80
2023-05-10T21:12:29.473Z,4.70
2023-05-10T21:14:57.665Z,4.72
2023-05-10T21:17:25.989Z,4.82
2023-05-10T21:19:55.640Z,5.00
2023-05-10T21:22:23.896Z,4.70
2023-05-10T21:24:52.382Z,4.60
2023-05-10T21:27:20.573Z,5.13
2023-05-10T21:29:48.773Z,4.47
2023-05-10T21:32:17.111Z,4.78
2023-05-10T21:34:45.359Z,4.68
2023-05-10T21:37:17.452Z,4.57
2023-05-10T21:39:45.814Z,4.28
2023-05-10T21:42:13.992Z,4.88
2023-05-10T21:44:42.295Z,4.18
2023-05-10T21:47:10.576Z,4.65
2023-05-10T21:49:38.836Z,4.90
2023-05-10T21:52:07.397Z,5.30
2023-05-10T21:54:37.353Z,4.60
2023-05-10T21:57:05.649Z,4.88
2023-05-10T21:59:33.917Z,4.70
2023-05-10T22:02:02.057Z,4.68
2023-05-10T22:04:30.927Z,4.95
2023-05-10T22:06:59.709Z,4.72
2023-05-10T22:09:27.909Z,4.80
2023-05-10T22:11:57.409Z,4.88
2023-05-10T22:14:25.672Z,4.07
2023-05-10T22:16:53.868Z,4.47
2023-05-10T22:19:22.127Z,4.30
2023-05-10T22:21:50.391Z,4.13
2023-05-10T22:24:18.529Z,4.47
2023-05-10T22:26:46.662Z,4.35
2023-05-10T22:29:16.374Z,4.50
2023-05-10T22:31:44.446Z,4.20
2023-05-10T22:34:12.635Z,4.00
2023-05-10T22:36:40.764Z,4.40
2023-05-10T22:39:08.956Z,4.50
2023-05-10T22:41:37.354Z,4.57
2023-05-10T22:44:05.583Z,4.03
2023-05-10T22:46:36.215Z,4.10
2023-05-10T22:49:04.597Z,4.30
2023-05-10T22:51:32.991Z,3.83
2023-05-10T22:54:01.274Z,4.40
2023-05-10T22:56:29.525Z,4.33
2023-05-10T22:58:58.261Z,4.20
2023-05-10T23:01:26.394Z,4.13
2023-05-10T23:03:57.384Z,4.57
2023-05-10T23:06:27.275Z,4.43
2023-05-10T23:08:55.369Z,4.10
2023-05-10T23:11:23.581Z,3.77
2023-05-10T23:13:52.330Z,3.80
2023-05-10T23:16:20.565Z,4.27
2023-05-10T23:18:48.792Z,4.13
2023-05-10T23:21:18.462Z,4.17
2023-05-10T23:23:46.738Z,3.63
2023-05-10T23:26:15.115Z,3.40
2023-05-10T23:28:43.279Z,3.73
2023-05-10T23:31:11.657Z,3.90
2023-05-10T23:33:40.072Z,3.53
2023-05-10T23:36:08.840Z,4.10
2023-05-10T23:38:39.373Z,3.60
2023-05-10T23:41:07.520Z,3.30
2023-05-10T23:43:35.645Z,3.80
2023-05-10T23:46:05.300Z,3.33
2023-05-10T23:48:33.511Z,3.40
2023-05-10T23:51:01.774Z,3.90
2023-05-10T23:53:29.866Z,3.90
2023-05-10T23:55:59.456Z,4.20
2023-05-10T23:58:27.576Z,3.83
